Time,TemperatureF,DewpointF,PressureIn,WindDirection,WindDirectionDegrees,WindSpeedMPH,WindSpeedGustMPH,Humidity,HourlyPrecipIn,Conditions,Clouds,dailyrainin,SoftwareType,DateUTC
2013-04-29 00:11:00,54.7,53.0,29.91,West,259,0.0,0.0,92,0.00,,,0.00,weatherlink.com 1.10,2013-04-29 04:11:00,
2013-04-29 00:26:00,54.2,52.0,29.92,WSW,248,0.0,0.0,93,0.00,,,0.00,weatherlink.com 1.10,2013-04-29 04:26:00,
2013-04-29 00:41:00,53.5,52.0,29.92,WSW,248,0.0,0.0,93,0.00,,,0.00,weatherlink.com 1.10,2013-04-29 04:41:00,
2013-04-29 00:56:00,53.2,52.0,29.92,WSW,248,0.0,0.0,94,0.00,,,0.00,weatherlink.com 1.10,2013-04-29 04:56:00,
2013-04-29 01:11:00,53.2,52.0,29.92,WSW,249,0.0,0.0,95,0.00,,,0.00,weatherlink.com 1.10,2013-04-29 05:11:00,
2013-04-29 01:26:00,54.0,53.0,29.92,WSW,242,0.0,1.0,96,0.00,,,0.00,weatherlink.com 1.10,2013-04-29 05:26:00,
2013-04-29 01:41:00,54.8,53.0,29.93,WSW,255,0.0,1.0,95,0.00,,,0.00,weatherlink.com 1.10,2013-04-29 05:41:00,
2013-04-29 01:56:00,55.2,54.0,29.93,WSW,248,0.0,0.0,94,0.00,,,0.00,weatherlink.com 1.10,2013-04-29 05:56:00,
2013-04-29 02:11:00,55.5,54.0,29.93,WSW,249,0.0,0.0,94,0.00,,,0.00,weatherlink.com 1.10,2013-04-29 06:11:00,
2013-04-29 02:26:00,55.8,54.0,29.93,WSW,246,0.0,0.0,94,0.00,,,0.00,weatherlink.com 1.10,2013-04-29 06:26:00,
2013-04-29 02:41:00,56.1,54.0,29.93,WSW,245,0.0,0.0,93,0.00,,,0.00,weatherlink.com 1.10,2013-04-29 06:41:00,
2013-04-29 02:56:00,56.3,54.0,29.93,WSW,246,0.0,0.0,93,0.00,,,0.00,weatherlink.com 1.10,2013-04-29 06:56:00,
2013-04-29 03:11:00,56.5,55.0,29.93,SW,226,0.0,1.0,93,0.00,,,0.00,weatherlink.com 1.10,2013-04-29 07:11:00,
2013-04-29 03:26:00,56.6,55.0,29.93,SW,226,0.0,1.0,93,0.00,,,0.00,weatherlink.com 1.10,2013-04-29 07:26:00,
2013-04-29 03:41:00,56.7,55.0,29.93,SW,233,0.0,2.0,92,0.00,,,0.00,weatherlink.com 1.10,2013-04-29 07:41:00,
2013-04-29 03:56:00,56.8,55.0,29.94,SW,228,1.0,2.0,92,0.00,,,0.00,weatherlink.com 1.10,2013-04-29 07:56:00,
2013-04-29 04:11:00,56.9,55.0,29.94,WSW,245,1.0,2.0,92,0.00,,,0.00,weatherlink.com 1.10,2013-04-29 08:11:00,
2013-04-29 04:26:00,56.9,55.0,29.94,WSW,239,1.0,2.0,92,0.00,,,0.00,weatherlink.com 1.10,2013-04-29 08:26:00,
2013-04-29 04:41:00,56.9,55.0,29.94,WSW,239,0.0,0.0,93,0.00,,,0.00,weatherlink.com 1.10,2013-04-29 08:41:00,
2013-04-29 04:56:00,56.7,55.0,29.95,SW,227,0.0,0.0,94,0.00,,,0.00,weatherlink.com 1.10,2013-04-29 08:56:00,
2013-04-29 05:11:00,56.5,55.0,29.95,SW,227,0.0,0.0,94,0.00,,,0.00,weatherlink.com 1.10,2013-04-29 09:11:00,
2013-04-29 05:26:00,56.5,55.0,29.95,SW,227,0.0,0.0,95,0.00,,,0.00,weatherlink.com 1.10,2013-04-29 09:26:00,
2013-04-29 05:41:00,56.5,55.0,29.95,SW,226,0.0,0.0,95,0.00,,,0.00,weatherlink.com 1.10,2013-04-29 09:41:00,
2013-04-29 05:56:00,56.5,55.0,29.96,SW,226,0.0,0.0,95,0.00,,,0.00,weatherlink.com 1.10,2013-04-29 09:56:00,
2013-04-29 06:11:00,56.4,55.0,29.96,SW,226,0.0,0.0,96,0.00,,,0.00,weatherlink.com 1.10,2013-04-29 10:11:00,
2013-04-29 06:26:00,56.4,55.0,29.96,WSW,238,0.0,0.0,96,0.00,,,0.00,weatherlink.com 1.10,2013-04-29 10:26:00,
2013-04-29 06:41:00,56.4,55.0,29.97,SW,231,0.0,0.0,96,0.00,,,0.00,weatherlink.com 1.10,2013-04-29 10:41:00,
2013-04-29 06:56:00,56.3,55.0,29.97,SW,235,0.0,0.0,96,0.00,,,0.00,weatherlink.com 1.10,2013-04-29 10:56:00,
2013-04-29 07:11:00,56.4,55.0,29.98,WSW,238,0.0,0.0,96,0.00,,,0.00,weatherlink.com 1.10,2013-04-29 11:11:00,
2013-04-29 07:26:00,56.4,56.0,29.98,WSW,242,0.0,0.0,97,0.00,,,0.00,weatherlink.com 1.10,2013-04-29 11:26:00,
2013-04-29 07:41:00,56.5,56.0,29.99,WSW,242,0.0,0.0,97,0.01,,,0.01,weatherlink.com 1.10,2013-04-29 11:41:00,
2013-04-29 07:57:00,56.6,56.0,29.99,SW,236,0.0,0.0,97,0.01,,,0.01,weatherlink.com 1.10,2013-04-29 11:57:00,
2013-04-29 08:12:00,56.9,56.0,29.99,SW,236,0.0,0.0,97,0.01,,,0.01,weatherlink.com 1.10,2013-04-29 12:12:00,
2013-04-29 08:27:00,57.1,56.0,30.00,SW,233,0.0,0.0,97,0.01,,,0.01,weatherlink.com 1.10,2013-04-29 12:27:00,
2013-04-29 08:42:00,57.4,57.0,30.00,SW,236,0.0,1.0,97,0.00,,,0.01,weatherlink.com 1.10,2013-04-29 12:42:00,
2013-04-29 08:57:00,57.5,57.0,30.01,SW,229,0.0,2.0,97,0.00,,,0.01,weatherlink.com 1.10,2013-04-29 12:57:00,
2013-04-29 09:12:00,57.7,57.0,30.01,SW,228,0.0,0.0,97,0.00,,,0.01,weatherlink.com 1.10,2013-04-29 13:12:00,
2013-04-29 09:27:00,57.9,57.0,30.01,WSW,240,0.0,1.0,96,0.00,,,0.01,weatherlink.com 1.10,2013-04-29 13:27:00,
2013-04-29 09:42:00,58.1,57.0,30.01,WSW,240,0.0,0.0,96,0.00,,,0.01,weatherlink.com 1.10,2013-04-29 13:42:00,
2013-04-29 09:57:00,58.3,57.0,30.01,SW,232,1.0,2.0,96,0.00,,,0.01,weatherlink.com 1.10,2013-04-29 13:57:00,
2013-04-29 10:12:00,58.7,57.0,30.01,SW,218,0.0,3.0,95,0.00,,,0.01,weatherlink.com 1.10,2013-04-29 14:12:00,
2013-04-29 10:27:00,59.3,58.0,30.02,SW,232,2.0,2.0,94,0.00,,,0.01,weatherlink.com 1.10,2013-04-29 14:27:00,
2013-04-29 10:42:00,59.5,57.0,30.02,WSW,257,0.0,0.0,92,0.00,,,0.01,weatherlink.com 1.10,2013-04-29 14:42:00,
2013-04-29 10:57:00,59.8,57.0,30.02,WSW,239,1.0,3.0,91,0.00,,,0.01,weatherlink.com 1.10,2013-04-29 14:57:00,
2013-04-29 11:12:00,59.9,57.0,30.02,SW,222,2.0,3.0,91,0.00,,,0.01,weatherlink.com 1.10,2013-04-29 15:12:00,
2013-04-29 11:27:00,59.7,57.0,30.02,West,269,0.0,2.0,91,0.00,,,0.01,weatherlink.com 1.10,2013-04-29 15:27:00,
2013-04-29 11:42:00,59.7,57.0,30.03,WSW,250,0.0,0.0,91,0.00,,,0.01,weatherlink.com 1.10,2013-04-29 15:42:00,
2013-04-29 11:57:00,59.5,57.0,30.03,WSW,257,0.0,0.0,92,0.01,,,0.02,weatherlink.com 1.10,2013-04-29 15:57:00,
2013-04-29 12:12:00,60.1,58.0,30.03,NNE,18,0.0,0.0,92,0.01,,,0.02,weatherlink.com 1.10,2013-04-29 16:12:00,
2013-04-29 12:27:00,60.3,58.0,30.03,South,179,0.0,4.0,91,0.01,,,0.02,weatherlink.com 1.10,2013-04-29 16:27:00,
2013-04-29 12:42:00,61.2,58.0,30.03,WSW,237,2.0,2.0,89,0.01,,,0.02,weatherlink.com 1.10,2013-04-29 16:42:00,
2013-04-29 12:57:00,60.3,57.0,30.03,SW,215,2.0,7.0,89,0.01,,,0.03,weatherlink.com 1.10,2013-04-29 16:57:00,
2013-04-29 13:12:00,59.4,57.0,30.02,SW,224,2.0,3.0,92,0.01,,,0.03,weatherlink.com 1.10,2013-04-29 17:12:00,
2013-04-29 13:27:00,59.5,58.0,30.02,SW,234,1.0,4.0,93,0.01,,,0.03,weatherlink.com 1.10,2013-04-29 17:27:00,
2013-04-29 13:42:00,60.0,58.0,30.02,SW,235,0.0,2.0,92,0.01,,,0.03,weatherlink.com 1.10,2013-04-29 17:42:00,
2013-04-29 13:57:00,60.9,58.0,30.01,SW,225,2.0,3.0,90,0.00,,,0.03,weatherlink.com 1.10,2013-04-29 17:57:00,
2013-04-29 14:12:00,62.0,59.0,30.01,SW,231,1.0,3.0,88,0.00,,,0.03,weatherlink.com 1.10,2013-04-29 18:12:00,
2013-04-29 14:27:00,63.3,58.0,30.01,South,177,2.0,4.0,82,0.00,,,0.03,weatherlink.com 1.10,2013-04-29 18:27:00,
2013-04-29 14:42:00,63.9,58.0,30.00,SE,135,1.0,4.0,80,0.00,,,0.03,weatherlink.com 1.10,2013-04-29 18:42:00,
2013-04-29 14:57:00,64.7,58.0,30.00,SSE,149,3.0,4.0,78,0.00,,,0.03,weatherlink.com 1.10,2013-04-29 18:57:00,
2013-04-29 15:12:00,65.0,57.0,30.00,SSE,153,0.0,4.0,76,0.00,,,0.03,weatherlink.com 1.10,2013-04-29 19:12:00,
2013-04-29 15:27:00,65.2,57.0,30.00,WSW,238,0.0,4.0,75,0.00,,,0.03,weatherlink.com 1.10,2013-04-29 19:27:00,
2013-04-29 15:42:00,66.3,58.0,29.99,SSW,210,0.0,1.0,75,0.00,,,0.03,weatherlink.com 1.10,2013-04-29 19:42:00,
2013-04-29 15:57:00,66.5,58.0,29.99,SE,144,2.0,2.0,73,0.00,,,0.03,weatherlink.com 1.10,2013-04-29 19:57:00,
2013-04-29 16:12:00,65.8,58.0,29.99,SE,145,2.0,3.0,75,0.00,,,0.03,weatherlink.com 1.10,2013-04-29 20:12:00,
2013-04-29 16:27:00,65.7,57.0,29.98,SE,130,0.0,3.0,74,0.00,,,0.03,weatherlink.com 1.10,2013-04-29 20:27:00,
2013-04-29 16:42:00,65.7,56.0,29.98,SSE,158,2.0,5.0,72,0.00,,,0.03,weatherlink.com 1.10,2013-04-29 20:42:00,
2013-04-29 16:57:00,65.9,57.0,29.98,SW,228,1.0,5.0,72,0.00,,,0.03,weatherlink.com 1.10,2013-04-29 20:57:00,
2013-04-29 17:12:00,66.2,56.0,29.98,SW,221,3.0,4.0,70,0.00,,,0.03,weatherlink.com 1.10,2013-04-29 21:12:00,
2013-04-29 17:27:00,66.5,56.0,29.98,SW,225,0.0,3.0,70,0.00,,,0.03,weatherlink.com 1.10,2013-04-29 21:27:00,
2013-04-29 17:42:00,66.0,56.0,29.98,SSW,201,0.0,6.0,69,0.00,,,0.03,weatherlink.com 1.10,2013-04-29 21:42:00,
2013-04-29 17:58:00,65.9,55.0,29.98,SW,231,3.0,5.0,67,0.00,,,0.03,weatherlink.com 1.10,2013-04-29 21:58:00,
2013-04-29 18:13:00,66.0,55.0,29.98,SW,229,1.0,4.0,67,0.00,,,0.03,weatherlink.com 1.10,2013-04-29 22:13:00,
2013-04-29 18:28:00,65.9,55.0,29.98,SW,214,1.0,5.0,69,0.00,,,0.03,weatherlink.com 1.10,2013-04-29 22:28:00,
2013-04-29 18:58:00,65.0,54.0,29.98,WSW,248,3.0,6.0,68,0.00,,,0.03,weatherlink.com 1.10,2013-04-29 22:58:00,
2013-04-29 19:13:00,64.8,55.0,29.98,WSW,246,0.0,3.0,70,0.00,,,0.03,weatherlink.com 1.10,2013-04-29 23:13:00,
2013-04-29 19:28:00,64.7,55.0,29.98,SW,231,0.0,1.0,71,0.00,,,0.03,weatherlink.com 1.10,2013-04-29 23:28:00,
2013-04-29 19:43:00,64.6,55.0,29.98,South,177,0.0,1.0,72,0.00,,,0.03,weatherlink.com 1.10,2013-04-29 23:43:00,
2013-04-29 19:58:00,64.2,55.0,29.98,SE,135,0.0,0.0,73,0.00,,,0.03,weatherlink.com 1.10,2013-04-29 23:58:00,
2013-04-29 20:13:00,63.0,56.0,29.98,SE,141,0.0,0.0,78,0.00,,,0.03,weatherlink.com 1.10,2013-04-30 00:13:00,
2013-04-29 20:28:00,61.5,56.0,29.98,SE,141,0.0,0.0,81,0.00,,,0.03,weatherlink.com 1.10,2013-04-30 00:28:00,
2013-04-29 20:43:00,60.1,55.0,29.98,SE,141,0.0,0.0,83,0.00,,,0.03,weatherlink.com 1.10,2013-04-30 00:43:00,
2013-04-29 20:58:00,58.9,55.0,29.98,SE,140,0.0,0.0,86,0.00,,,0.03,weatherlink.com 1.10,2013-04-30 00:58:00,
2013-04-29 21:13:00,57.9,54.0,29.99,SE,140,0.0,0.0,88,0.00,,,0.03,weatherlink.com 1.10,2013-04-30 01:13:00,
2013-04-29 21:28:00,57.2,54.0,29.99,SE,139,0.0,0.0,89,0.00,,,0.03,weatherlink.com 1.10,2013-04-30 01:28:00,
2013-04-29 21:43:00,56.7,54.0,29.99,SE,139,0.0,0.0,90,0.00,,,0.03,weatherlink.com 1.10,2013-04-30 01:43:00,
2013-04-29 21:58:00,56.3,54.0,30.00,SE,136,0.0,0.0,91,0.00,,,0.03,weatherlink.com 1.10,2013-04-30 01:58:00,
2013-04-29 22:13:00,55.9,54.0,30.00,SE,134,0.0,0.0,92,0.00,,,0.03,weatherlink.com 1.10,2013-04-30 02:13:00,
2013-04-29 22:28:00,55.6,53.0,30.00,NNW,339,0.0,0.0,92,0.00,,,0.03,weatherlink.com 1.10,2013-04-30 02:28:00,
2013-04-29 22:43:00,55.2,53.0,29.99,NNW,338,0.0,0.0,92,0.00,,,0.03,weatherlink.com 1.10,2013-04-30 02:43:00,
2013-04-29 22:58:00,54.9,53.0,29.99,NNW,338,0.0,0.0,93,0.00,,,0.03,weatherlink.com 1.10,2013-04-30 02:58:00,
2013-04-29 23:13:00,54.7,53.0,29.99,NNW,332,0.0,0.0,94,0.00,,,0.03,weatherlink.com 1.10,2013-04-30 03:13:00,
2013-04-29 23:28:00,54.5,53.0,29.99,NNW,329,0.0,0.0,94,0.00,,,0.03,weatherlink.com 1.10,2013-04-30 03:28:00,
2013-04-29 23:43:00,54.0,53.0,30.00,NNW,329,0.0,0.0,95,0.00,,,0.03,weatherlink.com 1.10,2013-04-30 03:43:00,
2013-04-29 23:58:00,53.9,53.0,30.00,NNW,329,0.0,0.0,95,0.00,,,0.03,weatherlink.com 1.10,2013-04-30 03:58:00,